Airfield :
LOGIN :

Register | Disclaimer

   EN    FR    IT 

 










Legend :    VFR   Marginal VFR   IFR   Intensive IFR   Very Intensive IFR
Visi :
Ceiling :
>= 8 km
>= 3000ft
5 to 8 km
1000 to 3000 ft
1500m to 5 km
500 to 1000 ft
800 to 1500m
200 to 500 ft
< 800m
< 200 ft
Symbols :   Thunderstorms  Fog  Heavy snow  Heavy precipitations  Wind > 20 kt
SIGMETs :     Misc.  Thunderstorms  Icing  Turbulence  Mountain Waves  Volcanic Ashes






- Airport Elevation : 24 ft
- IATA code : IBZ


LEIB - Ibiza

CURRENT METAR :
  • 281600Z 08011KT 050V110 CAVOK 23/15 Q1021 NOSIG

EXPIRED METARs :
  • 281530Z 07011KT CAVOK 23/16 Q1021 NOSIG
  • 281500Z 08012KT 050V110 CAVOK 24/15 Q1022 NOSIG
  • 281430Z 08012KT 040V110 CAVOK 24/15 Q1022 NOSIG
  • 281400Z 08013KT 050V110 CAVOK 24/15 Q1022 NOSIG
  • 281330Z 07013KT 050V110 CAVOK 24/16 Q1022 NOSIG

TAF TAF LEIB
Valid from the 28 at 15:00 until the 29 at 15:00 UTC


281400Z 2815/2915 08014KT 9999 FEW020 TX24/2912Z TN15/2906Z
BECMG 2818/2821 08006KT
BECMG 2907/2910 11008KT



MET'MAP, your aeronautical weather chart ! - Copyright ORBIFLY December 2007 - Disclaimer

ORBIFLY MET'MAP TEAM :

Programming & Development : Alexandra Zaïnal
Concept & original design : Baudouin d'Aumeries
Assistance for programming : Marc-Olivier Méhu
Technical & hardware support : Manuel Goepfert

Contact : metmap@orbifly.com




SOURCES & CREDITS :

   NOAA